Time;durP1;ratioP1;P1;durP2;ratioP2;P2;SDS_P1;SDS_P2;PMS_P1;PMS_P2;Temp;Humidity;BMP_temperature;BMP_pressure;BME280_temperature;BME280_humidity;BME280_pressure;Samples;Min_cycle;Max_cycle;Signal;HPM_P1;HPM_P2
2024/01/11 00:02:57;;;;;;;9.02;6.22;;;;;;;17.36;23.77;103020.94;16107738;19;130023;-62
2024/01/11 00:08:19;;;;;;;11.57;5.90;;;;;;;17.31;23.90;103020.66;16106684;19;129679;-62
2024/01/11 00:13:41;;;;;;;8.77;5.95;;;;;;;17.23;23.76;103025.19;16105826;19;129412;-62
2024/01/11 00:19:03;;;;;;;11.27;6.30;;;;;;;17.18;23.73;103030.44;16102728;19;129922;-62
2024/01/11 00:24:26;;;;;;;8.13;5.50;;;;;;;17.13;23.72;103032.88;16112928;19;129638;-62
2024/01/11 00:29:48;;;;;;;11.75;6.53;;;;;;;17.10;23.75;103030.50;16120040;19;131225;-62
2024/01/11 00:35:09;;;;;;;9.05;6.03;;;;;;;17.03;23.56;103032.28;16120564;19;129221;-62
2024/01/11 00:40:31;;;;;;;9.90;6.50;;;;;;;16.99;23.80;103033.69;16120084;19;130126;-62
2024/01/11 00:45:53;;;;;;;9.20;6.38;;;;;;;16.93;23.70;103038.03;16118811;19;129688;-62
2024/01/11 00:51:15;;;;;;;8.93;6.28;;;;;;;16.90;23.81;103042.03;16119588;19;129867;-62
2024/01/11 00:56:37;;;;;;;7.97;5.75;;;;;;;16.86;23.67;103051.72;16121153;19;134224;-62
2024/01/11 01:01:59;;;;;;;9.38;6.10;;;;;;;16.83;23.55;103060.41;16116385;19;130538;-62
2024/01/11 01:07:21;;;;;;;10.60;6.40;;;;;;;16.79;23.74;103059.03;16115259;19;130999;-62
2024/01/11 01:12:43;;;;;;;11.27;6.43;;;;;;;16.76;23.76;103073.22;16115821;19;129773;-62
2024/01/11 01:18:05;;;;;;;9.23;6.40;;;;;;;16.72;23.80;103077.41;16119251;19;129675;-63
2024/01/11 01:23:27;;;;;;;9.05;6.00;;;;;;;16.69;23.72;103077.75;16120996;19;131479;-62
2024/01/11 01:28:49;;;;;;;9.73;6.45;;;;;;;16.66;23.51;103073.47;16119240;19;129437;-63
2024/01/11 01:34:11;;;;;;;8.77;6.47;;;;;;;16.62;23.48;103061.84;16116332;19;131173;-62
2024/01/11 01:39:37;;;;;;;9.68;5.90;;;;;;;16.59;23.98;103065.00;16112755;19;129661;-62
2024/01/11 01:44:59;;;;;;;9.25;6.03;;;;;;;16.55;23.63;103073.84;16113347;19;129566;-62
2024/01/11 01:50:21;;;;;;;7.43;5.55;;;;;;;16.52;23.88;103075.03;16113685;19;130073;-62
2024/01/11 01:55:44;;;;;;;8.60;5.57;;;;;;;16.50;23.85;103085.41;16112485;19;129619;-62
2024/01/11 02:01:06;;;;;;;8.27;5.95;;;;;;;16.46;23.94;103093.19;16112268;19;129509;-62
2024/01/11 02:06:34;;;;;;;9.13;5.65;;;;;;;16.44;23.81;103097.19;16113017;19;129617;-62
2024/01/11 02:11:56;;;;;;;8.55;5.35;;;;;;;16.43;23.65;103099.06;16110008;19;130640;-62
2024/01/11 02:17:18;;;;;;;8.48;5.47;;;;;;;16.42;24.04;103102.91;16114680;19;129439;-62
2024/01/11 02:22:42;;;;;;;7.60;5.45;;;;;;;16.41;23.84;103103.06;16112284;19;129550;-63
2024/01/11 02:28:04;;;;;;;7.25;5.53;;;;;;;16.37;23.96;103104.47;16113173;19;130302;-62
2024/01/11 02:33:27;;;;;;;8.43;5.32;;;;;;;16.35;23.74;103106.53;16115739;19;130532;-62
2024/01/11 02:38:51;;;;;;;7.90;5.47;;;;;;;16.31;24.05;103106.88;16114212;19;129576;-62
2024/01/11 02:44:13;;;;;;;8.50;5.40;;;;;;;16.29;23.86;103106.19;16106799;19;129668;-62
2024/01/11 02:49:35;;;;;;;7.40;5.28;;;;;;;16.28;23.84;103112.75;16111101;19;130128;-63
2024/01/11 02:54:58;;;;;;;8.85;5.65;;;;;;;16.26;23.53;103108.47;16109347;19;129843;-63
2024/01/11 03:00:20;;;;;;;7.57;5.60;;;;;;;16.23;23.75;103097.75;16110860;19;130753;-61
2024/01/11 03:05:42;;;;;;;10.85;5.63;;;;;;;16.21;23.62;103100.72;16108343;19;129397;-60
2024/01/11 03:11:04;;;;;;;7.90;5.65;;;;;;;16.20;23.84;103093.47;16109401;19;129914;-61
2024/01/11 03:16:26;;;;;;;8.85;5.60;;;;;;;16.19;23.65;103093.63;16108590;19;130439;-61
2024/01/11 03:21:48;;;;;;;9.43;5.85;;;;;;;16.15;23.67;103096.75;16107862;19;129602;-60
2024/01/11 03:27:10;;;;;;;8.50;5.68;;;;;;;16.11;23.99;103094.53;16108785;19;129776;-62
2024/01/11 03:32:32;;;;;;;7.63;5.22;;;;;;;16.12;23.89;103087.97;16113043;19;134525;-62
2024/01/11 03:37:54;;;;;;;8.05;5.80;;;;;;;16.16;23.93;103089.31;16111300;19;130493;-62
2024/01/11 03:43:19;;;;;;;10.00;6.30;;;;;;;16.17;23.84;103080.00;16111522;19;129401;-62
2024/01/11 03:48:41;;;;;;;9.10;6.00;;;;;;;16.16;23.83;103081.03;16108733;19;129807;-62
2024/01/11 03:54:03;;;;;;;8.52;5.85;;;;;;;16.15;23.68;103085.72;16108093;19;131390;-62
2024/01/11 03:59:25;;;;;;;10.35;6.70;;;;;;;16.14;23.50;103085.88;16117918;19;130403;-62
2024/01/11 04:04:47;;;;;;;9.15;6.78;;;;;;;16.11;23.47;103089.00;16122054;19;130648;-61
2024/01/11 04:10:09;;;;;;;9.65;6.40;;;;;;;16.07;23.41;103101.44;16125053;19;131486;-61
2024/01/11 04:15:31;;;;;;;10.82;6.78;;;;;;;16.04;23.48;103108.19;16125194;19;129217;-62
2024/01/11 04:20:53;;;;;;;10.35;7.05;;;;;;;16.03;23.45;103113.84;16122443;19;129390;-62
2024/01/11 04:26:15;;;;;;;11.98;7.80;;;;;;;15.97;23.15;103108.00;16121292;19;129608;-62
2024/01/11 04:31:37;;;;;;;10.88;7.70;;;;;;;15.92;23.56;103110.41;16121309;19;131734;-61
2024/01/11 04:36:59;;;;;;;11.07;7.57;;;;;;;15.91;23.31;103113.38;16117817;19;130262;-61
2024/01/11 04:42:21;;;;;;;13.30;7.78;;;;;;;15.87;23.29;103128.53;16116189;19;129501;-61
2024/01/11 04:47:43;;;;;;;11.07;7.80;;;;;;;15.88;23.14;103124.75;16115927;19;129684;-62
2024/01/11 04:53:07;;;;;;;11.55;7.68;;;;;;;15.85;23.44;103132.34;16117707;19;129691;-62
2024/01/11 04:58:29;;;;;;;10.93;7.30;;;;;;;15.85;23.40;103129.56;16121672;19;131119;-63
2024/01/11 05:03:50;;;;;;;12.30;7.22;;;;;;;15.84;23.22;103144.41;16119938;19;130099;-62
2024/01/11 05:09:14;;;;;;;12.00;7.28;;;;;;;15.85;23.15;103150.81;16120258;19;130761;-62
2024/01/11 05:14:35;;;;;;;9.75;7.07;;;;;;;15.84;23.37;103155.44;16116137;19;129822;-62
2024/01/11 05:19:57;;;;;;;10.65;7.53;;;;;;;15.81;23.19;103153.06;16123903;19;135368;-60
2024/01/11 05:25:19;;;;;;;9.77;6.95;;;;;;;15.80;23.46;103167.00;16112999;19;130781;-61
2024/01/11 05:30:41;;;;;;;11.13;7.25;;;;;;;15.80;23.37;103175.28;16114342;19;130212;-62
2024/01/11 05:36:04;;;;;;;11.25;7.55;;;;;;;15.78;23.63;103188.41;16113537;19;129437;-61
2024/01/11 05:41:26;;;;;;;10.02;6.43;;;;;;;15.77;23.68;103187.53;16116759;19;129622;-62
2024/01/11 05:46:48;;;;;;;12.57;6.80;;;;;;;15.77;23.30;103181.16;16121586;19;129412;-62
2024/01/11 05:52:10;;;;;;;10.35;7.47;;;;;;;15.76;23.33;103184.94;16115876;19;129641;-61
2024/01/11 05:57:31;;;;;;;10.13;7.07;;;;;;;15.76;23.62;103193.22;16113280;19;130004;-61
2024/01/11 06:02:53;;;;;;;12.95;7.88;;;;;;;15.80;23.45;103197.38;16114141;19;131498;-62
2024/01/11 06:08:16;;;;;;;9.15;6.20;;;;;;;15.91;23.55;103201.69;16118160;19;129758;-62
2024/01/11 06:13:40;;;;;;;10.48;6.40;;;;;;;16.09;23.64;103209.81;16112065;19;131326;-63
2024/01/11 06:19:02;;;;;;;9.70;6.68;;;;;;;16.25;23.21;103215.31;16113575;19;129058;-63
2024/01/11 06:24:24;;;;;;;8.30;6.30;;;;;;;16.40;23.53;103218.25;16111160;19;130422;-62
2024/01/11 06:29:46;;;;;;;9.52;6.45;;;;;;;16.49;23.45;103229.28;16109893;19;130608;-63
2024/01/11 06:35:08;;;;;;;8.85;6.22;;;;;;;16.52;23.36;103213.19;16110278;19;131210;-62
2024/01/11 06:40:30;;;;;;;14.55;5.93;;;;;;;16.55;23.55;103221.13;16113147;19;129885;-62
2024/01/11 06:45:53;;;;;;;18.77;6.75;;;;;;;16.55;23.41;103214.75;16112170;19;130469;-64
2024/01/11 06:51:15;;;;;;;10.05;6.38;;;;;;;16.52;23.63;103215.09;16108587;19;129484;-61
2024/01/11 06:56:37;;;;;;;12.05;7.60;;;;;;;16.50;23.41;103231.00;16111458;19;134350;-61
2024/01/11 07:02:00;;;;;;;11.88;6.80;;;;;;;16.47;23.58;103229.44;16108314;19;129452;-61
2024/01/11 07:07:22;;;;;;;14.18;6.72;;;;;;;16.42;23.68;103229.09;16106068;19;129809;-61
2024/01/11 07:12:45;;;;;;;10.52;6.88;;;;;;;16.39;23.76;103254.31;16105985;19;130414;-61
2024/01/11 07:18:07;;;;;;;12.50;6.63;;;;;;;16.34;23.69;103259.50;16107757;19;131290;-61
2024/01/11 07:23:29;;;;;;;10.90;7.07;;;;;;;16.28;23.94;103250.03;16108859;19;129506;-61
2024/01/11 07:28:51;;;;;;;8.88;6.40;;;;;;;16.22;23.86;103240.53;16104838;19;131033;-61
2024/01/11 07:34:13;;;;;;;9.18;6.28;;;;;;;16.18;23.61;103247.44;16107647;19;129531;-61
2024/01/11 07:39:36;;;;;;;9.63;5.90;;;;;;;16.13;23.64;103250.72;16108458;19;130454;-61
2024/01/11 07:44:58;;;;;;;10.40;6.50;;;;;;;16.09;24.04;103265.03;16107207;19;130952;-61
2024/01/11 07:50:20;;;;;;;8.85;5.60;;;;;;;16.05;23.94;103261.75;16107994;19;131326;-61
2024/01/11 07:55:42;;;;;;;9.07;6.28;;;;;;;16.00;23.71;103259.50;16106929;19;130340;-61
2024/01/11 08:01:04;;;;;;;9.95;6.13;;;;;;;15.96;23.73;103258.13;16103995;19;129791;-61
2024/01/11 08:06:26;;;;;;;10.27;6.95;;;;;;;15.92;24.06;103278.81;16103848;19;132290;-61
2024/01/11 08:11:48;;;;;;;9.80;6.65;;;;;;;15.88;23.84;103262.78;16101328;19;130807;-61
2024/01/11 08:17:16;;;;;;;11.98;6.82;;;;;;;15.85;23.77;103255.69;16104256;19;133576;-61
2024/01/11 08:22:43;;;;;;;10.90;7.38;;;;;;;15.82;23.79;103272.59;16104398;19;131431;-61
2024/01/11 08:28:05;;;;;;;9.57;7.22;;;;;;;15.78;23.53;103271.19;16101945;19;130752;-61
2024/01/11 08:33:26;;;;;;;13.52;7.82;;;;;;;15.75;23.62;103277.94;16102085;19;130078;-61
2024/01/11 08:38:49;;;;;;;11.35;8.13;;;;;;;15.75;24.04;103285.34;16100914;19;130389;-61
2024/01/11 08:44:11;;;;;;;11.50;7.35;;;;;;;15.83;24.13;103288.13;16108481;19;130346;-61
2024/01/11 08:49:36;;;;;;;10.75;7.38;;;;;;;15.98;23.72;103280.91;16118928;19;129205;-62
2024/01/11 08:54:58;;;;;;;10.80;6.82;;;;;;;16.12;23.42;103281.28;16122263;19;130399;-61
2024/01/11 09:00:20;;;;;;;12.65;6.65;;;;;;;16.23;23.49;103275.41;16119193;19;129691;-61
2024/01/11 09:05:42;;;;;;;14.30;8.15;;;;;;;16.32;23.22;103268.84;16116374;19;129627;-61
2024/01/11 09:11:04;;;;;;;14.35;8.07;;;;;;;16.38;23.49;103294.03;16114121;19;129575;-62
2024/01/11 09:16:26;;;;;;;11.07;7.05;;;;;;;16.39;23.51;103290.22;16114355;19;129606;-61
2024/01/11 09:21:48;;;;;;;11.60;7.75;;;;;;;16.36;23.43;103290.59;16115630;19;131288;-61
2024/01/11 09:27:10;;;;;;;13.63;8.00;;;;;;;16.35;23.60;103299.91;16115900;19;129333;-61
2024/01/11 09:32:32;;;;;;;10.48;7.53;;;;;;;16.30;23.50;103304.03;16114455;19;130363;-61
2024/01/11 09:37:54;;;;;;;12.48;8.43;;;;;;;16.28;23.12;103308.88;16112156;19;130856;-61
2024/01/11 09:43:17;;;;;;;11.75;8.10;;;;;;;16.24;23.14;103310.28;16116392;19;129494;-61
2024/01/11 09:48:43;;;;;;;13.25;8.50;;;;;;;16.22;22.94;103312.34;16113949;19;130128;-61
2024/01/11 09:54:06;;;;;;;11.48;7.88;;;;;;;16.18;22.94;103326.66;16111520;19;129694;-61
2024/01/11 09:59:28;;;;;;;12.25;8.80;;;;;;;16.10;22.82;103322.84;16114602;19;131127;-61
2024/01/11 10:04:52;;;;;;;11.35;8.15;;;;;;;16.06;23.27;103329.72;16113556;19;129474;-60
2024/01/11 10:10:17;;;;;;;11.23;8.23;;;;;;;16.01;23.15;103329.41;16114140;19;129670;-61
2024/01/11 10:15:39;;;;;;;11.30;7.70;;;;;;;15.99;23.18;103337.84;16109762;19;129749;-61
2024/01/11 10:21:02;;;;;;;14.65;8.00;;;;;;;16.06;23.10;103348.22;16111527;19;129495;-61
2024/01/11 10:26:24;;;;;;;11.50;7.60;;;;;;;16.16;22.72;103348.91;16107839;19;130358;-60
2024/01/11 10:31:47;;;;;;;10.95;7.82;;;;;;;16.34;22.55;103359.81;16109262;19;129756;-60
2024/01/11 10:37:10;;;;;;;12.27;7.97;;;;;;;16.52;22.32;103361.56;16112318;19;129941;-61
2024/01/11 10:42:34;;;;;;;13.23;7.68;;;;;;;16.70;22.27;103362.25;16111794;19;128986;-61
2024/01/11 10:48:01;;;;;;;12.45;7.95;;;;;;;16.84;21.94;103374.53;16112845;19;130699;-61
2024/01/11 10:53:36;;;;;;;11.20;7.95;;;;;;;16.90;22.10;103359.16;16111296;19;129435;-61
2024/01/11 10:59:00;;;;;;;12.13;8.13;;;;;;;16.92;22.00;103354.31;16106207;19;131278;-61
2024/01/11 11:04:23;;;;;;;13.65;8.85;;;;;;;16.91;22.02;103344.28;16108214;19;129973;-59
2024/01/11 11:09:49;;;;;;;13.73;8.35;;;;;;;16.88;21.79;103339.97;16106617;19;129422;-61
2024/01/11 11:15:13;;;;;;;13.38;9.10;;;;;;;16.86;22.09;103347.56;16110670;19;130478;-61
2024/01/11 11:20:35;;;;;;;11.63;8.05;;;;;;;16.84;21.82;103346.00;16111606;19;129681;-61
2024/01/11 11:25:57;;;;;;;14.60;9.50;;;;;;;16.78;22.18;103350.34;16107620;19;131209;-61
2024/01/11 11:31:41;;;;;;;11.57;8.75;;;;;;;16.73;21.82;103352.78;16107244;19;130238;-61
2024/01/11 11:37:04;;;;;;;11.43;8.65;;;;;;;16.63;22.30;103356.53;16106511;19;130447;-61
2024/01/11 11:42:26;;;;;;;12.95;9.07;;;;;;;16.57;21.83;103360.00;16103198;19;129344;-65
2024/01/11 11:47:48;;;;;;;12.15;8.98;;;;;;;16.54;21.70;103365.88;16102422;19;131592;-60
2024/01/11 11:53:11;;;;;;;12.65;9.10;;;;;;;16.50;21.83;103356.19;16108500;19;129456;-61
2024/01/11 11:58:34;;;;;;;14.10;9.30;;;;;;;16.45;21.96;103366.91;16105979;19;134056;-61
2024/01/11 12:03:57;;;;;;;12.68;8.98;;;;;;;16.39;21.88;103360.16;16106997;19;129715;-61
2024/01/11 12:09:21;;;;;;;11.48;8.25;;;;;;;16.34;21.81;103350.69;16105135;19;129452;-61
2024/01/11 12:14:43;;;;;;;13.05;9.30;;;;;;;16.32;21.98;103360.00;16101271;19;129374;-61
2024/01/11 12:20:06;;;;;;;10.93;7.95;;;;;;;16.29;21.85;103368.63;16110979;19;129655;-61
2024/01/11 12:25:29;;;;;;;16.58;8.55;;;;;;;16.25;22.00;103358.09;16120151;19;130501;-61
2024/01/11 12:30:51;;;;;;;13.85;9.52;;;;;;;16.20;22.16;103353.06;16120554;19;129396;-61
2024/01/11 12:36:14;;;;;;;14.70;8.23;;;;;;;16.15;22.16;103349.94;16118944;19;130729;-61
2024/01/11 12:41:36;;;;;;;12.32;8.23;;;;;;;16.10;21.91;103349.59;16120556;19;130420;-61
2024/01/11 12:46:58;;;;;;;13.32;8.63;;;;;;;16.10;22.39;103336.66;16115984;19;130325;-63
2024/01/11 12:52:20;;;;;;;15.43;8.93;;;;;;;16.06;22.03;103339.94;16111097;19;131513;-63
2024/01/11 12:57:42;;;;;;;15.63;8.95;;;;;;;16.04;22.30;103339.22;16115131;19;130564;-64
2024/01/11 13:03:05;;;;;;;12.85;9.32;;;;;;;15.99;21.83;103336.97;16112208;19;129433;-65
2024/01/11 13:08:27;;;;;;;14.20;9.25;;;;;;;15.99;21.93;103335.09;16119025;19;129483;-64
2024/01/11 13:13:49;;;;;;;11.65;8.25;;;;;;;15.98;21.93;103322.31;16118170;19;129976;-64
2024/01/11 13:19:11;;;;;;;12.52;8.73;;;;;;;16.00;21.81;103323.00;16115587;19;129525;-61
2024/01/11 13:24:47;;;;;;;12.43;8.98;;;;;;;15.97;22.16;103320.59;16115126;19;129656;-62
2024/01/11 13:30:09;;;;;;;11.80;8.18;;;;;;;15.96;22.23;103323.50;16114315;19;130071;-60
2024/01/11 13:35:31;;;;;;;12.85;8.55;;;;;;;15.92;21.55;103327.66;16115513;19;131221;-61
2024/01/11 13:40:53;;;;;;;15.88;9.15;;;;;;;15.84;21.88;103320.22;16110252;19;130503;-60
2024/01/11 13:46:19;;;;;;;12.80;9.17;;;;;;;15.78;21.71;103331.91;16115893;19;130560;-61
2024/01/11 13:51:43;;;;;;;12.93;9.63;;;;;;;15.73;21.73;103337.06;16114371;19;131465;-62
2024/01/11 13:57:17;;;;;;;14.82;10.73;;;;;;;15.68;21.65;103338.41;16106391;19;129415;-61
2024/01/11 14:02:40;;;;;;;16.75;9.95;;;;;;;15.68;21.57;103349.47;16110051;19;131327;-61
2024/01/11 14:08:05;;;;;;;18.52;10.40;;;;;;;15.62;21.47;103352.03;16112522;19;130781;-61
2024/01/11 14:13:27;;;;;;;12.88;10.35;;;;;;;15.63;21.76;103354.59;16108881;19;130553;-61
2024/01/11 14:18:49;;;;;;;14.93;10.55;;;;;;;15.59;21.34;103366.13;16106803;19;131330;-61
2024/01/11 14:24:11;;;;;;;14.88;9.93;;;;;;;15.63;21.71;103373.91;16107140;19;130979;-61
2024/01/11 14:29:35;;;;;;;12.68;9.07;;;;;;;15.78;21.43;103374.19;16111158;19;129545;-61
2024/01/11 14:34:57;;;;;;;23.15;9.45;;;;;;;15.97;21.36;103373.06;16111955;19;129674;-61
2024/01/11 14:40:19;;;;;;;14.18;8.73;;;;;;;16.18;21.24;103374.47;16109161;19;131367;-61
2024/01/11 14:45:42;;;;;;;11.60;8.82;;;;;;;16.40;20.87;103372.06;16110869;19;129369;-61
2024/01/11 14:51:05;;;;;;;13.25;8.48;;;;;;;16.56;21.19;103371.22;16110879;19;129665;-62
2024/01/11 14:56:27;;;;;;;11.63;8.07;;;;;;;16.69;20.70;103367.97;16105175;19;129978;-62
2024/01/11 15:01:49;;;;;;;16.05;8.45;;;;;;;16.76;21.11;103363.47;16108858;19;130131;-61
2024/01/11 15:07:12;;;;;;;12.65;7.55;;;;;;;16.82;20.99;103362.78;16118787;19;129931;-62
2024/01/11 15:12:35;;;;;;;9.52;6.70;;;;;;;16.79;20.68;103354.84;16109733;19;131213;-62
2024/01/11 15:17:57;;;;;;;9.48;7.30;;;;;;;16.77;21.08;103349.50;16108877;19;130145;-61
2024/01/11 15:23:19;;;;;;;10.85;7.38;;;;;;;16.77;21.39;103343.09;16105510;19;131240;-61
2024/01/11 15:28:41;;;;;;;9.35;6.82;;;;;;;16.74;21.04;103344.31;16104701;19;129967;-60
2024/01/11 15:34:04;;;;;;;7.00;5.45;;;;;;;16.71;21.13;103346.56;16103206;19;129409;-60
2024/01/11 15:39:26;;;;;;;11.45;6.15;;;;;;;16.66;21.32;103351.69;16105816;19;130081;-61
2024/01/11 15:44:51;;;;;;;8.18;5.25;;;;;;;16.61;21.67;103350.34;16109386;19;129954;-61
2024/01/11 15:50:13;;;;;;;8.57;5.32;;;;;;;16.56;21.55;103335.28;16106526;19;129771;-61
2024/01/11 15:55:35;;;;;;;6.88;5.00;;;;;;;16.59;21.50;103335.81;16117559;19;131713;-61
2024/01/11 16:00:57;;;;;;;7.70;4.50;;;;;;;16.76;21.58;103341.34;16122283;19;129593;-61
2024/01/11 16:06:19;;;;;;;5.75;4.10;;;;;;;17.04;21.83;103338.19;16120866;19;129452;-61
2024/01/11 16:11:42;;;;;;;6.30;3.42;;;;;;;17.47;21.83;103348.97;16118589;19;131443;-61
2024/01/11 16:17:04;;;;;;;7.85;3.72;;;;;;;17.85;21.80;103346.38;16119904;19;129616;-61
2024/01/11 16:22:25;;;;;;;5.43;3.47;;;;;;;18.22;21.56;103349.41;16117311;19;132358;-61
2024/01/11 16:27:47;;;;;;;3.95;3.10;;;;;;;18.45;21.21;103342.03;16111376;19;130788;-61
2024/01/11 16:33:09;;;;;;;4.88;3.53;;;;;;;18.59;21.59;103334.78;16111636;19;130564;-60
2024/01/11 16:38:31;;;;;;;4.25;3.00;;;;;;;18.60;21.52;103343.94;16117017;19;129624;-60
2024/01/11 16:43:53;;;;;;;4.72;3.67;;;;;;;18.54;21.66;103333.63;16118563;19;129913;-61
2024/01/11 16:49:15;;;;;;;4.60;2.90;;;;;;;18.44;21.55;103337.53;16117475;19;129695;-61
2024/01/11 16:54:38;;;;;;;5.82;3.10;;;;;;;18.30;21.72;103336.38;16119403;19;131695;-61
2024/01/11 17:00:00;;;;;;;7.30;3.53;;;;;;;18.18;21.88;103335.06;16115710;19;132007;-61
2024/01/11 17:05:23;;;;;;;4.32;3.45;;;;;;;18.20;21.99;103337.69;16115238;19;129754;-61
2024/01/11 17:10:45;;;;;;;5.95;3.65;;;;;;;18.34;21.95;103334.09;16107408;19;131188;-63
2024/01/11 17:16:07;;;;;;;6.75;3.42;;;;;;;18.62;21.86;103336.31;16108107;19;131407;-60
2024/01/11 17:21:32;;;;;;;4.18;3.10;;;;;;;18.96;21.80;103329.38;16111433;19;129908;-63
2024/01/11 17:26:53;;;;;;;10.02;3.40;;;;;;;19.25;22.27;103337.97;16119573;19;130943;-63
2024/01/11 17:32:15;;;;;;;5.50;3.00;;;;;;;19.48;22.03;103341.47;16119709;19;131089;-61
2024/01/11 17:37:38;;;;;;;3.95;2.40;;;;;;;19.71;22.11;103342.38;16110191;19;135986;-65
2024/01/11 17:43:01;;;;;;;8.65;2.90;;;;;;;19.99;22.30;103335.06;16114606;19;130122;-68
2024/01/11 17:48:22;;;;;;;6.85;2.63;;;;;;;20.16;22.07;103342.28;16113830;19;130176;-64
2024/01/11 17:53:46;;;;;;;7.03;2.70;;;;;;;20.24;22.38;103331.91;16110335;19;131323;-63
2024/01/11 17:59:09;;;;;;;5.15;2.72;;;;;;;20.23;22.35;103337.66;16109547;19;130720;-63
2024/01/11 18:04:31;;;;;;;3.55;2.70;;;;;;;20.19;22.31;103341.88;16100190;19;131355;-63
2024/01/11 18:09:53;;;;;;;4.35;2.65;;;;;;;20.24;22.71;103348.56;16099642;19;129879;-66
2024/01/11 18:15:15;;;;;;;3.70;2.42;;;;;;;20.32;23.02;103346.72;16102028;19;130158;-65
2024/01/11 18:20:37;;;;;;;7.07;2.70;;;;;;;20.35;23.00;103354.66;16098029;19;132034;-64
2024/01/11 18:25:59;;;;;;;3.72;2.60;;;;;;;20.33;22.85;103352.09;16099364;19;130496;-65
2024/01/11 18:31:22;;;;;;;3.47;2.40;;;;;;;20.31;23.10;103345.88;16103870;19;130603;-64
2024/01/11 18:36:45;;;;;;;3.25;2.60;;;;;;;20.26;23.31;103349.25;16111957;19;129685;-66
2024/01/11 18:42:12;;;;;;;2.78;2.20;;;;;;;20.22;23.38;103341.50;16021759;19;141529;-67
2024/01/11 18:47:35;;;;;;;3.88;2.45;;;;;;;20.18;23.52;103332.72;16106390;19;130974;-67
2024/01/11 18:52:57;;;;;;;3.92;2.00;;;;;;;20.14;23.38;103335.00;16100126;19;131428;-68
2024/01/11 18:58:20;;;;;;;5.68;2.35;;;;;;;20.12;24.14;103337.09;16111250;19;129721;-68
2024/01/11 19:03:43;;;;;;;12.70;2.78;;;;;;;20.20;24.23;103335.28;16109448;19;130718;-68
2024/01/11 19:09:05;;;;;;;8.35;2.63;;;;;;;20.36;24.08;103345.25;16104085;19;131036;-68
2024/01/11 19:14:27;;;;;;;13.73;3.25;;;;;;;20.49;24.38;103337.03;16102697;19;129714;-69
2024/01/11 19:19:49;;;;;;;7.88;2.67;;;;;;;20.59;24.24;103331.16;16101081;19;129557;-70
2024/01/11 19:25:11;;;;;;;6.25;2.10;;;;;;;20.64;24.56;103334.16;16101370;19;129727;-69
2024/01/11 19:30:33;;;;;;;10.65;2.22;;;;;;;20.65;24.68;103338.66;16105425;19;129981;-69
2024/01/11 19:35:56;;;;;;;10.63;2.10;;;;;;;20.69;24.67;103344.69;16108530;19;130876;-68
2024/01/11 19:41:22;;;;;;;4.65;2.20;;;;;;;20.70;24.84;103338.94;16108434;19;129619;-68
2024/01/11 19:46:44;;;;;;;8.52;2.33;;;;;;;20.68;24.88;103335.50;16105487;19;130026;-70
2024/01/11 19:52:06;;;;;;;10.57;2.67;;;;;;;20.64;25.03;103328.59;16103472;19;129995;-68
2024/01/11 19:57:30;;;;;;;5.30;1.95;;;;;;;20.63;25.15;103337.16;16097088;19;131867;-70
2024/01/11 20:02:53;;;;;;;6.82;2.58;;;;;;;20.72;24.56;103335.94;16099699;19;134796;-68
2024/01/11 20:08:15;;;;;;;13.60;3.10;;;;;;;20.87;24.80;103336.75;16097658;19;129861;-69
2024/01/11 20:13:37;;;;;;;8.55;2.10;;;;;;;21.10;24.92;103324.47;16098860;19;130684;-69
2024/01/11 20:18:59;;;;;;;4.18;1.85;;;;;;;21.40;24.77;103314.97;16095583;19;131304;-70
2024/01/11 20:24:21;;;;;;;5.13;2.13;;;;;;;21.68;24.55;103320.47;16090060;19;131697;-68
2024/01/11 20:29:43;;;;;;;6.70;2.35;;;;;;;21.89;24.10;103313.06;16092860;19;130950;-67
2024/01/11 20:35:06;;;;;;;9.90;1.85;;;;;;;22.08;24.01;103315.00;16103256;19;130958;-67
2024/01/11 20:40:28;;;;;;;7.05;1.60;;;;;;;22.24;23.95;103313.75;16112402;19;129623;-67
2024/01/11 20:45:51;;;;;;;3.83;2.17;;;;;;;22.28;23.65;103329.00;16116827;19;130364;-67
2024/01/11 20:51:17;;;;;;;4.97;2.13;;;;;;;22.25;24.36;103328.59;16119376;19;130033;-69
2024/01/11 20:56:46;;;;;;;3.97;1.83;;;;;;;22.15;24.49;103330.91;16117579;19;129983;-68
2024/01/11 21:02:08;;;;;;;6.38;1.70;;;;;;;22.02;24.03;103340.09;16118766;19;131060;-68
2024/01/11 21:07:30;;;;;;;5.85;1.80;;;;;;;21.87;24.37;103332.75;16118290;19;130908;-69
2024/01/11 21:12:52;;;;;;;4.18;2.17;;;;;;;21.71;24.55;103333.16;16108952;19;129977;-67
2024/01/11 21:18:14;;;;;;;5.15;1.80;;;;;;;21.48;24.97;103351.00;16103072;19;131117;-63
2024/01/11 21:23:37;;;;;;;9.20;1.80;;;;;;;21.28;24.94;103342.56;16105575;19;131671;-64
2024/01/11 21:29:00;;;;;;;4.18;1.67;;;;;;;21.03;25.31;103351.41;16107546;19;129778;-64
2024/01/11 21:34:22;;;;;;;5.60;1.77;;;;;;;20.79;25.60;103352.72;16115997;19;129959;-63
2024/01/11 21:39:44;;;;;;;4.75;2.08;;;;;;;20.59;25.95;103348.69;16114262;19;129430;-64
2024/01/11 21:45:06;;;;;;;9.90;2.05;;;;;;;20.41;25.87;103334.41;16114481;19;129707;-63
2024/01/11 21:50:30;;;;;;;11.63;1.95;;;;;;;20.24;26.26;103331.91;16110578;19;131488;-64
2024/01/11 21:55:52;;;;;;;3.35;1.85;;;;;;;20.06;26.13;103326.78;16112139;19;131740;-64
2024/01/11 22:01:15;;;;;;;3.15;1.60;;;;;;;19.89;26.49;103320.59;16103859;19;129809;-64
2024/01/11 22:06:36;;;;;;;5.65;1.92;;;;;;;19.73;26.72;103323.59;16102855;19;131346;-65
2024/01/11 22:11:58;;;;;;;8.18;2.80;;;;;;;19.65;26.68;103324.59;16104491;19;131444;-65
2024/01/11 22:17:21;;;;;;;8.18;2.58;;;;;;;19.59;26.94;103317.88;16101464;19;130916;-65
2024/01/11 22:22:42;;;;;;;5.60;2.17;;;;;;;19.50;26.74;103311.63;16105399;19;129913;-65
2024/01/11 22:28:05;;;;;;;2.95;2.08;;;;;;;19.41;27.22;103315.53;16107427;19;130647;-64
2024/01/11 22:33:27;;;;;;;7.38;2.22;;;;;;;19.32;27.25;103300.88;16112118;19;130406;-65
2024/01/11 22:38:50;;;;;;;4.57;2.03;;;;;;;19.21;26.95;103284.72;16107465;19;129256;-65
2024/01/11 22:44:12;;;;;;;6.53;1.73;;;;;;;19.10;27.13;103305.50;16113630;19;129493;-67
2024/01/11 22:49:34;;;;;;;5.68;1.70;;;;;;;18.99;27.06;103309.59;16112734;19;129732;-65
2024/01/11 22:54:55;;;;;;;5.28;1.90;;;;;;;18.87;27.55;103323.09;16109619;19;130755;-65
2024/01/11 23:00:20;;;;;;;3.72;2.17;;;;;;;18.77;27.35;103317.81;16112996;19;129645;-65
2024/01/11 23:05:43;;;;;;;4.63;1.90;;;;;;;18.67;27.32;103317.22;16109436;19;129666;-65
2024/01/11 23:11:05;;;;;;;4.45;1.98;;;;;;;18.58;27.29;103312.81;16108670;19;129521;-63
2024/01/11 23:16:28;;;;;;;2.75;1.55;;;;;;;18.49;27.59;103320.31;16109516;19;129826;-65
2024/01/11 23:21:50;;;;;;;4.82;1.50;;;;;;;18.39;27.34;103315.03;16108530;19;129802;-64
2024/01/11 23:27:12;;;;;;;2.88;1.77;;;;;;;18.31;27.73;103290.16;16107348;19;129541;-64
2024/01/11 23:32:34;;;;;;;5.03;1.75;;;;;;;18.23;27.88;103304.91;16105431;19;130080;-65
2024/01/11 23:37:57;;;;;;;4.15;1.70;;;;;;;18.18;27.92;103300.97;16109544;19;130791;-64
2024/01/11 23:43:19;;;;;;;4.10;1.90;;;;;;;18.11;27.75;103296.16;16110334;19;129610;-65
2024/01/11 23:48:40;;;;;;;4.45;1.80;;;;;;;18.06;27.59;103295.88;16106058;19;130444;-62
2024/01/11 23:54:03;;;;;;;2.95;1.80;;;;;;;18.00;27.67;103293.84;16110009;19;130082;-65
2024/01/11 23:59:25;;;;;;;5.03;1.80;;;;;;;17.96;27.64;103311.88;16105634;19;129440;-65
